Time;durP1;ratioP1;P1;durP2;ratioP2;P2;SDS_P1;SDS_P2;PMS_P1;PMS_P2;Temp;Humidity;BMP_temperature;BMP_pressure;BME280_temperature;BME280_humidity;BME280_pressure;Samples;Min_cycle;Max_cycle;Signal;HPM_P1;HPM_P2
2023/06/12 00:04:44;;;;;;;4.80;3.20;;;;;;;22.04;40.19;100168.69;10311489;28;20053;-62
2023/06/12 00:09:46;;;;;;;7.70;3.17;;;;;;;21.94;40.79;100174.06;10307283;28;20050;-62
2023/06/12 00:14:47;;;;;;;6.15;3.00;;;;;;;21.83;41.09;100172.28;10308389;28;20054;-62
2023/06/12 00:19:49;;;;;;;4.65;3.13;;;;;;;21.74;41.44;100180.09;10304002;28;20532;-62
2023/06/12 00:24:50;;;;;;;6.63;3.70;;;;;;;21.53;41.78;100181.75;10312536;28;20340;-63
2023/06/12 00:29:52;;;;;;;4.90;2.97;;;;;;;21.35;42.49;100180.91;10302916;28;20470;-62
2023/06/12 00:34:53;;;;;;;4.00;3.17;;;;;;;21.20;42.87;100181.50;10310317;28;20047;-61
2023/06/12 00:39:54;;;;;;;4.20;2.55;;;;;;;20.98;43.56;100189.66;10306986;28;20039;-60
2023/06/12 00:44:56;;;;;;;5.57;3.05;;;;;;;20.89;43.55;100182.97;10303086;28;20047;-62
2023/06/12 00:49:58;;;;;;;6.25;2.90;;;;;;;20.81;43.55;100183.34;10309804;28;20054;-61
2023/06/12 00:55:01;;;;;;;7.65;3.58;;;;;;;20.77;43.72;100177.56;10311180;28;20506;-62
2023/06/12 01:00:05;;;;;;;8.25;3.42;;;;;;;20.73;44.05;100178.28;10302153;28;20047;-61
2023/06/12 01:05:13;;;;;;;6.22;3.95;;;;;;;20.64;44.43;100172.44;10307451;28;20494;-62
2023/06/12 01:10:24;;;;;;;5.55;3.40;;;;;;;20.65;44.53;100168.59;10303996;28;20073;-61
2023/06/12 01:15:25;;;;;;;7.35;3.50;;;;;;;20.64;44.65;100174.34;10303826;28;20494;-61
2023/06/12 01:20:27;;;;;;;3.90;3.47;;;;;;;20.62;44.92;100184.66;10308631;28;20484;-62
2023/06/12 01:25:52;;;;;;;8.98;3.88;;;;;;;20.55;45.44;100182.06;10304847;28;20046;-62
2023/06/12 01:31:14;;;;;;;5.80;3.20;;;;;;;20.48;45.42;100182.22;10304317;28;20046;-61
2023/06/12 01:36:23;;;;;;;5.22;3.22;;;;;;;20.41;45.47;100176.91;10302426;28;20046;-61
2023/06/12 01:41:27;;;;;;;8.13;3.70;;;;;;;20.33;45.49;100177.31;10301797;28;20046;-61
2023/06/12 01:46:28;;;;;;;4.82;3.00;;;;;;;20.32;45.09;100174.81;10304923;28;20084;-61
2023/06/12 01:51:30;;;;;;;5.95;4.22;;;;;;;20.23;45.58;100177.13;10304502;28;20055;-61
2023/06/12 01:56:32;;;;;;;5.25;3.47;;;;;;;20.10;46.05;100178.25;10303291;28;20058;-61
2023/06/12 02:01:34;;;;;;;5.85;3.55;;;;;;;19.92;46.42;100178.41;10304326;28;20042;-61
2023/06/12 02:06:36;;;;;;;5.45;3.35;;;;;;;19.90;46.20;100178.66;10300625;28;20047;-65
2023/06/12 02:11:39;;;;;;;6.13;3.53;;;;;;;19.97;46.08;100176.63;10305699;28;20046;-60
2023/06/12 02:16:40;;;;;;;7.38;3.45;;;;;;;19.89;46.47;100192.56;10305470;28;20034;-58
2023/06/12 02:21:42;;;;;;;5.88;3.58;;;;;;;19.79;46.55;100190.44;10295582;28;20402;-59
2023/06/12 02:26:43;;;;;;;5.65;3.47;;;;;;;19.77;46.48;100189.84;10288529;28;20398;-59
2023/06/12 02:31:45;;;;;;;3.90;2.88;;;;;;;19.72;46.84;100198.75;10306265;28;20046;-60
2023/06/12 02:36:47;;;;;;;4.13;3.30;;;;;;;19.69;46.72;100199.22;10307685;28;20046;-59
2023/06/12 02:41:49;;;;;;;4.43;3.28;;;;;;;19.65;46.84;100195.31;10302951;28;20105;-58
2023/06/12 02:46:58;;;;;;;6.47;3.80;;;;;;;19.53;47.32;100197.19;10302739;28;20050;-60
2023/06/12 02:52:00;;;;;;;5.80;3.28;;;;;;;19.51;47.40;100199.34;10305053;28;20487;-60
2023/06/12 02:57:01;;;;;;;4.30;3.63;;;;;;;19.46;47.42;100201.97;10300731;28;20062;-60
2023/06/12 03:02:03;;;;;;;6.15;3.63;;;;;;;19.40;47.45;100204.56;10307594;28;20055;-58
2023/06/12 03:07:05;;;;;;;5.85;3.15;;;;;;;19.36;47.61;100206.09;10307645;28;20085;-61
2023/06/12 03:12:07;;;;;;;5.18;3.42;;;;;;;19.33;47.61;100200.28;10305994;28;20599;-61
2023/06/12 03:17:09;;;;;;;6.35;3.33;;;;;;;19.24;47.81;100204.47;10303053;28;20278;-62
2023/06/12 03:22:11;;;;;;;6.03;3.22;;;;;;;19.30;47.71;100212.50;10302352;28;20141;-62
2023/06/12 03:27:14;;;;;;;3.92;3.10;;;;;;;19.33;47.68;100213.91;10305745;28;20038;-63
2023/06/12 03:32:15;;;;;;;4.90;3.67;;;;;;;19.31;47.62;100216.91;10308792;28;20597;-62
2023/06/12 03:37:18;;;;;;;3.50;3.20;;;;;;;19.20;48.01;100215.81;10308934;28;20046;-62
2023/06/12 03:42:19;;;;;;;5.10;2.78;;;;;;;19.21;47.82;100225.66;10275275;28;1010781;-62
2023/06/12 03:47:21;;;;;;;8.75;3.67;;;;;;;19.26;47.65;100227.69;10311520;28;20402;-62
2023/06/12 03:52:22;;;;;;;4.25;3.33;;;;;;;19.20;48.02;100224.00;10308164;28;20497;-61
2023/06/12 03:57:24;;;;;;;4.15;3.53;;;;;;;19.32;47.98;100231.34;10312967;28;20061;-62
2023/06/12 04:02:25;;;;;;;11.43;3.83;;;;;;;19.37;47.95;100235.03;10312458;28;20433;-63
2023/06/12 04:12:44;;;;;;;6.18;3.97;;;;;;;19.49;47.92;100245.09;10692783;23;20147;-62
2023/06/12 04:17:46;;;;;;;7.05;4.10;;;;;;;19.53;48.31;100258.03;10190436;28;20047;-61
2023/06/12 04:22:47;;;;;;;7.25;4.70;;;;;;;19.55;48.75;100261.34;10190634;28;20051;-63
2023/06/12 04:27:49;;;;;;;7.05;3.88;;;;;;;19.59;48.81;100257.06;10184322;28;20620;-61
2023/06/12 04:32:53;;;;;;;11.25;4.47;;;;;;;19.68;48.73;100263.00;10185036;28;20118;-62
2023/06/12 04:37:55;;;;;;;6.88;4.53;;;;;;;19.78;49.17;100259.69;10185013;29;20387;-62
2023/06/12 04:42:59;;;;;;;6.78;4.63;;;;;;;19.87;48.63;100262.91;10210113;28;20407;-62
2023/06/12 04:48:01;;;;;;;5.03;4.53;;;;;;;19.97;48.95;100261.22;10211191;28;20070;-61
2023/06/12 04:53:03;;;;;;;4.75;4.22;;;;;;;20.12;48.68;100260.72;10225072;28;20110;-62
2023/06/12 04:58:04;;;;;;;4.93;3.88;;;;;;;20.24;48.67;100263.41;10229822;28;20056;-61
2023/06/12 05:03:05;;;;;;;5.43;3.83;;;;;;;20.34;48.75;100252.69;10224938;28;20047;-61
2023/06/12 05:08:07;;;;;;;5.85;3.47;;;;;;;20.47;48.48;100259.75;10226016;28;20058;-62
2023/06/12 05:13:08;;;;;;;5.13;3.58;;;;;;;20.61;48.23;100254.84;10225598;28;20055;-61
2023/06/12 05:18:10;;;;;;;5.55;3.75;;;;;;;20.73;48.26;100272.00;10223862;28;20048;-62
2023/06/12 05:23:11;;;;;;;7.57;3.67;;;;;;;21.00;48.05;100274.94;10211920;28;20127;-62
2023/06/12 05:28:13;;;;;;;8.18;4.00;;;;;;;21.23;47.84;100269.56;10223617;28;20054;-60
2023/06/12 05:33:15;;;;;;;10.82;3.45;;;;;;;21.40;48.05;100264.94;10198275;28;20080;-61
2023/06/12 05:38:16;;;;;;;4.40;3.47;;;;;;;21.57;47.80;100273.97;10206794;28;20054;-60
2023/06/12 05:43:18;;;;;;;5.53;3.67;;;;;;;21.65;47.47;100275.47;10214504;28;20036;-60
2023/06/12 05:48:19;;;;;;;7.75;3.95;;;;;;;21.77;47.03;100280.84;10183748;29;20043;-60
2023/06/12 05:53:21;;;;;;;4.10;3.50;;;;;;;21.85;46.84;100274.09;10188565;28;20056;-61
2023/06/12 05:58:22;;;;;;;7.25;5.30;;;;;;;21.87;46.88;100275.50;10189917;28;20124;-60
2023/06/12 06:03:24;;;;;;;8.68;4.10;;;;;;;21.92;46.73;100281.06;10184701;28;20521;-60
2023/06/12 06:08:26;;;;;;;8.35;3.63;;;;;;;21.99;46.92;100286.31;10183794;29;20039;-61
2023/06/12 06:13:27;;;;;;;8.30;4.15;;;;;;;22.09;46.37;100283.72;10186157;28;20044;-60
2023/06/12 06:18:29;;;;;;;5.72;4.13;;;;;;;22.15;46.90;100290.91;10189473;28;20052;-61
2023/06/12 06:23:32;;;;;;;4.13;3.28;;;;;;;22.33;46.89;100289.81;10179132;29;20040;-66
2023/06/12 06:28:33;;;;;;;3.92;3.42;;;;;;;22.60;46.19;100307.38;10180163;28;20046;-65
2023/06/12 06:33:35;;;;;;;4.93;4.00;;;;;;;22.84;46.04;100294.19;10179221;29;20055;-66
2023/06/12 06:38:37;;;;;;;8.90;3.55;;;;;;;23.02;45.81;100306.69;10178469;28;20563;-66
2023/06/12 06:43:38;;;;;;;4.45;3.72;;;;;;;23.23;45.64;100297.59;10180179;29;20047;-66
2023/06/12 06:48:39;;;;;;;7.93;4.03;;;;;;;23.41;45.37;100303.78;10182202;28;20896;-65
2023/06/12 06:53:41;;;;;;;7.07;3.70;;;;;;;23.57;45.04;100302.78;10185552;29;20041;-66
2023/06/12 06:58:42;;;;;;;5.00;3.90;;;;;;;23.74;44.47;100305.41;10198131;28;20050;-66
2023/06/12 07:03:44;;;;;;;4.47;3.47;;;;;;;23.89;44.15;100307.41;10221556;28;20059;-69
2023/06/12 07:08:45;;;;;;;4.80;3.50;;;;;;;23.97;43.98;100303.34;10227689;28;20048;-68
2023/06/12 07:13:47;;;;;;;4.30;3.38;;;;;;;24.16;43.87;100299.06;10208160;28;20055;-65
2023/06/12 07:18:48;;;;;;;4.72;3.00;;;;;;;24.38;43.05;100300.78;10229964;28;20056;-68
2023/06/12 07:23:51;;;;;;;4.43;3.10;;;;;;;24.69;42.04;100294.31;10227948;28;20070;-67
2023/06/12 07:28:53;;;;;;;9.27;3.45;;;;;;;24.97;41.10;100294.09;10214083;28;20495;-68
2023/06/12 07:33:58;;;;;;;5.83;3.47;;;;;;;25.17;41.15;100293.28;10189695;29;20165;-68
2023/06/12 07:39:00;;;;;;;7.32;3.63;;;;;;;25.35;40.90;100292.75;10175030;28;20051;-65
2023/06/12 07:44:01;;;;;;;6.53;3.22;;;;;;;25.49;39.90;100293.88;10163058;28;20052;-66
2023/06/12 07:49:03;;;;;;;3.78;3.00;;;;;;;25.71;38.54;100290.81;10202956;28;20050;-66
2023/06/12 07:54:04;;;;;;;3.80;3.50;;;;;;;25.94;38.43;100287.75;10186499;29;20047;-66
2023/06/12 07:59:09;;;;;;;7.05;4.78;;;;;;;26.09;38.44;100279.44;10226354;28;20055;-66
2023/06/12 08:04:11;;;;;;;4.00;3.15;;;;;;;26.21;38.67;100279.09;10199046;28;20062;-66
2023/06/12 08:09:12;;;;;;;3.10;2.80;;;;;;;26.42;37.24;100266.03;10217158;28;20054;-67
2023/06/12 08:14:13;;;;;;;3.50;3.20;;;;;;;26.60;37.01;100276.47;10213750;28;20047;-67
2023/06/12 08:19:15;;;;;;;5.38;3.40;;;;;;;26.67;37.53;100273.38;10203044;28;20058;-66
2023/06/12 08:24:16;;;;;;;8.10;3.55;;;;;;;26.86;37.62;100273.53;10225954;28;20048;-66
2023/06/12 08:29:18;;;;;;;3.38;3.08;;;;;;;27.07;37.67;100257.63;10194759;29;20544;-67
2023/06/12 08:34:24;;;;;;;3.92;3.53;;;;;;;27.25;36.71;100256.97;10229186;28;20047;-66
2023/06/12 08:39:26;;;;;;;4.07;3.67;;;;;;;27.35;36.11;100250.53;10199387;28;20075;-67
2023/06/12 08:44:28;;;;;;;8.02;3.60;;;;;;;27.46;36.14;100246.53;10211811;28;20055;-67
2023/06/12 08:49:31;;;;;;;5.20;3.47;;;;;;;27.59;36.23;100244.22;10188296;28;20048;-71
2023/06/12 08:54:33;;;;;;;4.28;3.90;;;;;;;27.78;35.94;100238.75;10221000;28;20046;-70
2023/06/12 08:59:34;;;;;;;6.68;3.35;;;;;;;27.91;35.42;100231.72;10204746;28;20514;-71
2023/06/12 09:04:44;;;;;;;4.47;2.97;;;;;;;27.98;34.89;100226.66;10195945;28;20047;-70
2023/06/12 09:09:46;;;;;;;3.40;3.13;;;;;;;27.96;34.66;100224.19;10216475;28;20060;-71
2023/06/12 09:14:50;;;;;;;4.10;3.00;;;;;;;28.03;34.82;100218.31;10184640;29;20132;-69
2023/06/12 09:19:51;;;;;;;5.63;3.20;;;;;;;28.27;34.36;100219.06;10218899;28;20131;-71
2023/06/12 09:24:55;;;;;;;4.22;2.90;;;;;;;28.47;34.21;100217.13;10225737;28;20062;-69
2023/06/12 09:29:59;;;;;;;4.90;2.88;;;;;;;28.67;33.61;100221.56;10225723;28;20482;-73
2023/06/12 09:35:01;;;;;;;4.45;3.10;;;;;;;28.85;33.14;100217.13;10223441;28;20067;-71
2023/06/12 09:40:13;;;;;;;4.93;2.65;;;;;;;28.96;32.56;100210.31;10222078;28;20047;-69
2023/06/12 09:45:17;;;;;;;5.70;3.05;;;;;;;29.03;31.25;100213.53;10226629;28;20757;-70
2023/06/12 09:50:19;;;;;;;3.20;2.72;;;;;;;29.25;30.77;100212.88;10207326;28;20054;-67
2023/06/12 09:55:26;;;;;;;4.63;3.03;;;;;;;29.34;30.84;100212.97;10215724;28;20066;-66
2023/06/12 10:00:29;;;;;;;5.32;2.72;;;;;;;29.41;30.25;100196.81;10219769;28;20052;-66
2023/06/12 10:05:37;;;;;;;3.03;2.55;;;;;;;29.56;29.83;100197.63;10214988;28;20087;-66
2023/06/12 10:10:39;;;;;;;3.00;2.45;;;;;;;29.58;30.02;100196.22;10224222;28;20129;-67
2023/06/12 10:15:41;;;;;;;14.48;4.25;;;;;;;29.85;28.50;100191.81;10220173;28;20522;-67
2023/06/12 10:20:44;;;;;;;7.55;3.25;;;;;;;30.13;29.19;100194.53;10220278;28;20047;-66
2023/06/12 10:25:47;;;;;;;3.95;2.80;;;;;;;30.51;27.78;100188.69;10220358;28;20040;-67
2023/06/12 10:31:11;;;;;;;3.00;2.75;;;;;;;30.71;27.47;100184.59;10222782;28;20051;-69
2023/06/12 10:36:13;;;;;;;5.78;3.00;;;;;;;30.91;26.64;100200.81;10202391;28;20066;-70
2023/06/12 10:41:33;;;;;;;6.93;3.70;;;;;;;30.97;27.11;100188.41;10220154;28;20051;-71
2023/06/12 10:46:44;;;;;;;4.75;3.03;;;;;;;31.28;26.76;100170.13;10221823;28;20098;-68
2023/06/12 10:51:47;;;;;;;6.75;2.95;;;;;;;31.45;26.26;100178.56;10223148;28;20043;-72
2023/06/12 10:56:58;;;;;;;5.00;3.03;;;;;;;31.59;25.47;100173.69;10220323;28;20561;-70
2023/06/12 11:01:59;;;;;;;3.55;2.95;;;;;;;31.78;24.84;100159.53;10222010;28;20055;-71
2023/06/12 11:07:02;;;;;;;4.65;2.70;;;;;;;31.61;24.28;100157.53;10222334;28;20114;-73
2023/06/12 11:12:05;;;;;;;4.93;3.15;;;;;;;31.54;24.91;100157.19;10220681;28;20584;-70
2023/06/12 11:17:07;;;;;;;4.05;3.28;;;;;;;31.74;25.09;100158.56;10243782;28;20066;-68
2023/06/12 11:22:09;;;;;;;7.60;4.63;;;;;;;31.87;24.94;100159.56;10227150;28;20047;-67
2023/06/12 11:27:10;;;;;;;5.28;3.10;;;;;;;32.25;24.83;100163.72;10219775;28;20046;-68
2023/06/12 11:32:12;;;;;;;6.47;3.17;;;;;;;32.32;24.13;100150.97;10228400;28;20131;-66
2023/06/12 11:37:15;;;;;;;3.60;2.55;;;;;;;32.21;23.48;100152.44;10222149;28;20047;-68
2023/06/12 11:42:16;;;;;;;4.40;2.90;;;;;;;32.22;24.00;100145.72;10229183;28;20051;-69
2023/06/12 11:47:19;;;;;;;7.72;3.42;;;;;;;32.32;24.09;100139.03;10234900;28;20433;-66
2023/06/12 11:52:23;;;;;;;4.65;2.75;;;;;;;32.46;23.91;100147.19;10235320;28;20047;-66
2023/06/12 11:57:26;;;;;;;7.13;3.10;;;;;;;32.66;23.98;100140.97;10233688;28;20603;-68
2023/06/12 12:02:32;;;;;;;4.38;2.67;;;;;;;32.93;23.65;100136.19;10226868;28;20055;-66
2023/06/12 12:07:39;;;;;;;6.68;3.65;;;;;;;33.04;23.26;100136.63;10223873;28;20052;-67
2023/06/12 12:12:43;;;;;;;3.35;2.60;;;;;;;33.19;22.77;100123.00;10230164;28;20048;-67
2023/06/12 12:17:45;;;;;;;4.23;2.20;;;;;;;33.04;22.95;100137.47;10228766;28;20047;-65
2023/06/12 12:22:53;;;;;;;4.28;2.40;;;;;;;33.17;22.78;100122.50;10231346;28;20079;-65
2023/06/12 12:27:59;;;;;;;5.55;2.80;;;;;;;33.39;22.35;100123.41;10227541;28;20066;-66
2023/06/12 12:33:01;;;;;;;3.88;2.65;;;;;;;33.53;22.35;100129.56;10222675;28;20147;-67
2023/06/12 12:38:03;;;;;;;3.08;2.78;;;;;;;33.73;21.84;100130.78;10224297;28;20206;-67
2023/06/12 12:43:04;;;;;;;5.28;2.40;;;;;;;33.88;21.32;100118.22;10223173;28;21297;-66
2023/06/12 12:48:06;;;;;;;4.25;2.40;;;;;;;34.19;20.87;100128.19;10227105;28;20058;-66
2023/06/12 12:53:08;;;;;;;3.22;2.42;;;;;;;34.29;20.42;100124.97;10225759;28;20367;-66
2023/06/12 12:58:09;;;;;;;26.10;3.10;;;;;;;34.62;19.70;100112.19;10211032;28;20043;-65
2023/06/12 13:03:19;;;;;;;3.78;2.30;;;;;;;34.75;19.85;100119.47;10215923;28;20050;-66
2023/06/12 13:08:21;;;;;;;3.78;2.47;;;;;;;35.10;19.14;100099.53;10212879;28;20150;-66
2023/06/12 13:13:23;;;;;;;3.28;2.28;;;;;;;35.34;18.75;100093.94;10221048;28;20032;-66
2023/06/12 13:18:25;;;;;;;2.35;2.15;;;;;;;35.52;18.74;100094.53;10222228;28;20058;-66
2023/06/12 13:23:26;;;;;;;3.80;2.40;;;;;;;35.83;18.31;100087.53;10218951;28;20040;-66
2023/06/12 13:28:28;;;;;;;2.55;1.85;;;;;;;36.07;18.15;100081.03;10221544;28;20043;-66
2023/06/12 13:33:30;;;;;;;6.32;2.10;;;;;;;36.53;17.29;100080.72;10226707;28;20066;-66
2023/06/12 13:38:31;;;;;;;6.25;1.50;;;;;;;37.88;16.06;100079.69;10225782;28;20043;-66
2023/06/12 13:43:33;;;;;;;2.08;1.70;;;;;;;40.39;14.35;100083.13;10197751;28;20046;-65
2023/06/12 13:48:34;;;;;;;6.50;1.73;;;;;;;41.46;13.21;100073.22;10190321;29;20047;-65
2023/06/12 13:53:39;;;;;;;3.13;2.05;;;;;;;41.70;12.39;100069.72;10227229;28;20043;-64
2023/06/12 13:58:40;;;;;;;2.20;1.27;;;;;;;41.89;12.61;100073.44;10199153;28;20075;-65
2023/06/12 14:03:43;;;;;;;3.53;1.80;;;;;;;42.17;12.65;100069.97;10237924;28;20051;-65
2023/06/12 14:08:44;;;;;;;4.72;1.50;;;;;;;41.75;12.76;100068.53;10222560;28;20024;-63
2023/06/12 14:13:46;;;;;;;3.30;1.33;;;;;;;40.32;13.57;100052.03;10201590;29;20054;-64
2023/06/12 14:18:50;;;;;;;1.42;1.33;;;;;;;39.32;14.25;100067.53;10232484;28;20052;-64
2023/06/12 14:23:52;;;;;;;3.17;1.60;;;;;;;38.78;14.63;100061.00;10213205;29;20036;-64
2023/06/12 14:28:53;;;;;;;4.15;1.88;;;;;;;39.42;14.83;100050.03;10232163;28;20476;-65
2023/06/12 14:33:54;;;;;;;6.45;1.80;;;;;;;40.07;13.95;100048.94;10200126;28;20039;-64
2023/06/12 14:38:56;;;;;;;4.50;1.45;;;;;;;40.38;13.30;100036.41;10174935;29;20048;-64
2023/06/12 14:43:58;;;;;;;2.10;1.30;;;;;;;40.55;13.33;100034.97;10239944;28;20050;-66
2023/06/12 14:49:00;;;;;;;2.92;2.00;;;;;;;40.32;13.57;100037.94;10208433;28;20404;-65
2023/06/12 14:54:01;;;;;;;1.45;1.33;;;;;;;40.10;13.45;100030.44;10230933;28;20062;-65
2023/06/12 14:59:02;;;;;;;1.88;1.40;;;;;;;39.86;13.58;100022.09;10224654;29;20052;-65
2023/06/12 15:04:05;;;;;;;3.00;1.52;;;;;;;39.82;13.66;100028.88;10221779;28;20052;-66
2023/06/12 15:09:06;;;;;;;1.63;1.42;;;;;;;40.11;13.27;100023.59;10190206;29;20083;-64
2023/06/12 15:14:08;;;;;;;4.00;1.40;;;;;;;39.98;13.44;100023.88;10224929;28;20058;-66
2023/06/12 15:19:09;;;;;;;3.03;1.40;;;;;;;40.22;13.50;100014.06;10207076;28;20126;-66
2023/06/12 15:24:11;;;;;;;4.60;1.33;;;;;;;40.51;13.33;100022.84;10184173;29;20082;-66
2023/06/12 15:29:12;;;;;;;3.50;1.38;;;;;;;40.40;13.47;100019.13;10214698;28;20054;-65
2023/06/12 15:34:14;;;;;;;3.58;1.60;;;;;;;40.47;12.51;100009.94;10183951;29;20116;-65
2023/06/12 15:39:15;;;;;;;3.08;1.38;;;;;;;40.28;12.78;100011.72;10180620;28;20043;-66
2023/06/12 15:44:17;;;;;;;4.00;1.35;;;;;;;40.25;13.18;100002.03;10181895;29;20046;-65
2023/06/12 15:49:18;;;;;;;3.35;1.80;;;;;;;40.34;13.39;100004.56;10203975;28;20163;-64
2023/06/12 15:54:20;;;;;;;2.03;1.55;;;;;;;40.48;13.22;100000.28;10186015;28;20438;-65
2023/06/12 15:59:22;;;;;;;1.45;1.35;;;;;;;40.43;13.21;99990.97;10197160;28;20051;-64
2023/06/12 16:04:24;;;;;;;2.00;1.60;;;;;;;40.19;12.90;99980.25;10190262;28;20044;-64
2023/06/12 16:09:26;;;;;;;3.58;1.70;;;;;;;40.21;13.15;99989.13;10216590;28;20143;-65
2023/06/12 16:14:27;;;;;;;3.95;1.50;;;;;;;40.35;13.19;99978.03;10181588;29;20422;-65
2023/06/12 16:19:28;;;;;;;1.38;1.20;;;;;;;40.44;12.84;99974.88;10215461;28;20048;-65
2023/06/12 16:24:30;;;;;;;2.33;1.00;;;;;;;40.61;13.35;99976.25;10215516;28;20059;-66
2023/06/12 16:29:32;;;;;;;7.90;3.38;;;;;;;40.63;12.83;99971.03;10219042;28;20040;-65
2023/06/12 16:34:34;;;;;;;2.03;1.13;;;;;;;40.61;12.59;99964.97;10227436;28;20043;-65
2023/06/12 16:39:38;;;;;;;1.80;1.27;;;;;;;40.37;12.94;99958.72;10206347;28;20506;-73
2023/06/12 16:44:39;;;;;;;2.60;1.67;;;;;;;40.18;13.15;99961.72;10223285;28;20047;-65
2023/06/12 16:49:41;;;;;;;3.28;1.35;;;;;;;40.36;13.67;99959.91;10226515;28;20035;-65
2023/06/12 16:54:42;;;;;;;2.55;1.35;;;;;;;40.30;13.99;99957.81;10224231;28;20054;-65
2023/06/12 16:59:44;;;;;;;3.88;1.30;;;;;;;40.28;13.29;99954.56;10225613;28;20039;-65
2023/06/12 17:04:46;;;;;;;3.22;1.30;;;;;;;40.19;13.05;99954.91;10218627;28;20494;-65
2023/06/12 17:09:47;;;;;;;3.45;1.55;;;;;;;40.13;13.47;99950.81;10223988;28;20047;-65
2023/06/12 17:14:49;;;;;;;2.97;1.30;;;;;;;40.23;13.04;99952.94;10222561;28;20039;-64
2023/06/12 17:19:50;;;;;;;2.22;1.45;;;;;;;40.24;12.63;99948.91;10223415;28;20044;-64
2023/06/12 17:24:52;;;;;;;1.63;1.25;;;;;;;40.04;12.79;99954.75;10220814;28;20116;-65
2023/06/12 17:29:55;;;;;;;2.47;1.38;;;;;;;40.12;12.88;99944.38;10210915;28;20079;-64
2023/06/12 17:34:56;;;;;;;1.43;1.00;;;;;;;40.07;12.91;99944.72;10223753;28;20054;-64
2023/06/12 17:39:58;;;;;;;1.77;1.10;;;;;;;40.17;12.57;99943.19;10219917;28;20414;-67
2023/06/12 17:45:00;;;;;;;2.67;2.30;;;;;;;39.94;13.07;99943.38;10222074;28;20043;-68
2023/06/12 17:50:02;;;;;;;4.45;2.53;;;;;;;39.68;13.42;99939.44;10226232;28;20051;-68
2023/06/12 17:55:04;;;;;;;2.83;1.35;;;;;;;39.44;13.66;99924.69;10228218;28;20057;-69
2023/06/12 18:00:07;;;;;;;2.28;1.58;;;;;;;39.28;14.07;99935.31;10220997;28;20054;-69
2023/06/12 18:05:08;;;;;;;2.08;1.35;;;;;;;39.16;14.61;99933.53;10222400;28;20058;-66
2023/06/12 18:10:11;;;;;;;2.42;1.52;;;;;;;38.94;13.98;99935.19;10224168;28;20592;-67
2023/06/12 18:15:13;;;;;;;2.25;1.60;;;;;;;38.35;15.05;99934.66;10220510;28;20048;-68
2023/06/12 18:20:15;;;;;;;4.53;2.50;;;;;;;37.40;15.60;99933.16;10223317;28;20051;-68
2023/06/12 18:25:16;;;;;;;3.72;1.27;;;;;;;36.38;16.60;99922.75;10221146;28;20047;-66
2023/06/12 18:30:18;;;;;;;4.75;2.95;;;;;;;35.53;17.25;99933.19;10221550;28;20070;-67
2023/06/12 18:35:19;;;;;;;2.00;1.80;;;;;;;34.75;18.45;99930.38;10203504;28;20491;-67
2023/06/12 18:40:22;;;;;;;2.28;1.75;;;;;;;34.05;19.08;99932.34;10203140;28;20107;-69
2023/06/12 18:45:23;;;;;;;4.70;2.67;;;;;;;33.37;20.15;99930.63;10180571;29;20047;-66
2023/06/12 18:50:24;;;;;;;4.72;1.90;;;;;;;32.74;20.36;99938.88;10223442;28;20536;-67
2023/06/12 18:55:26;;;;;;;5.20;1.92;;;;;;;32.16;21.13;99936.44;10190334;28;20058;-67
2023/06/12 19:00:27;;;;;;;3.42;1.73;;;;;;;31.53;22.02;99935.22;10214892;28;20040;-68
2023/06/12 19:05:29;;;;;;;4.85;2.00;;;;;;;31.01;22.47;99936.75;10177307;29;20462;-64
2023/06/12 19:10:30;;;;;;;7.65;3.47;;;;;;;30.46;24.05;99945.53;10213473;28;20134;-64
2023/06/12 19:15:32;;;;;;;1.63;1.52;;;;;;;29.92;24.75;99948.31;10197595;28;20048;-66
2023/06/12 19:20:34;;;;;;;2.90;2.13;;;;;;;29.37;25.54;99952.06;10207002;28;20039;-64
2023/06/12 19:25:35;;;;;;;4.07;1.75;;;;;;;29.03;25.81;99961.63;10215070;28;20040;-64
2023/06/12 19:30:37;;;;;;;3.30;2.10;;;;;;;28.68;26.52;99964.00;10192232;28;20619;-64
2023/06/12 19:35:38;;;;;;;4.75;1.98;;;;;;;28.35;27.22;99968.75;10231173;28;20043;-63
2023/06/12 19:40:40;;;;;;;4.38;2.00;;;;;;;27.92;27.76;99971.69;10190276;29;20055;-64
2023/06/12 19:45:41;;;;;;;2.83;2.55;;;;;;;27.59;28.45;99973.59;10189543;29;20055;-65
2023/06/12 19:50:43;;;;;;;13.00;3.67;;;;;;;27.25;28.73;99975.44;10177699;28;20071;-65
2023/06/12 19:55:45;;;;;;;3.15;2.20;;;;;;;26.96;28.94;99986.53;10191086;28;20054;-67
2023/06/12 20:00:46;;;;;;;5.03;2.40;;;;;;;26.75;29.58;99977.66;10159415;28;20376;-64
2023/06/12 20:05:48;;;;;;;5.13;2.03;;;;;;;26.54;29.58;99982.56;10196294;29;20046;-66
2023/06/12 20:10:50;;;;;;;6.45;2.25;;;;;;;26.23;29.62;99993.88;10196545;28;20052;-64
2023/06/12 20:15:51;;;;;;;4.50;2.17;;;;;;;25.98;30.54;100000.41;10203375;28;20521;-66
2023/06/12 20:20:53;;;;;;;6.35;2.40;;;;;;;25.78;30.57;99997.78;10205776;28;20052;-67
2023/06/12 20:25:55;;;;;;;4.13;2.20;;;;;;;25.57;30.54;100002.59;10200729;29;20071;-68
2023/06/12 20:30:56;;;;;;;2.75;1.83;;;;;;;25.36;31.41;100016.47;10200508;28;20060;-66
2023/06/12 20:35:58;;;;;;;5.30;2.00;;;;;;;25.11;31.46;100007.19;10187066;28;20958;-67
2023/06/12 20:40:59;;;;;;;7.90;2.40;;;;;;;24.92;31.90;100007.00;10185716;29;20060;-67
2023/06/12 20:46:01;;;;;;;4.57;1.70;;;;;;;24.75;32.02;100003.75;10199517;29;20150;-66
2023/06/12 20:51:07;;;;;;;4.82;2.15;;;;;;;24.61;31.97;100014.50;10206036;28;20047;-67
2023/06/12 20:56:08;;;;;;;6.30;2.10;;;;;;;24.50;31.95;100012.81;10166758;28;20063;-68
2023/06/12 21:01:10;;;;;;;5.15;1.85;;;;;;;24.34;31.94;100009.25;10190259;28;20514;-67
2023/06/12 21:06:13;;;;;;;3.88;2.75;;;;;;;24.17;32.14;100012.31;10190003;28;20047;-67
2023/06/12 21:11:34;;;;;;;6.60;1.85;;;;;;;23.99;32.35;100021.88;10191376;28;20059;-68
2023/06/12 21:16:37;;;;;;;2.60;1.83;;;;;;;23.91;32.48;100016.94;10186737;28;20054;-67
2023/06/12 21:21:39;;;;;;;3.92;2.17;;;;;;;23.80;32.52;100016.13;10187549;28;20048;-68
2023/06/12 21:26:41;;;;;;;3.35;2.58;;;;;;;23.69;32.36;100014.41;10187117;28;20044;-67
2023/06/12 21:31:42;;;;;;;4.45;1.98;;;;;;;23.55;32.61;100025.91;10183486;28;20047;-67
2023/06/12 21:36:45;;;;;;;4.13;1.88;;;;;;;23.44;32.80;100029.72;10190388;28;20040;-67
2023/06/12 21:41:46;;;;;;;2.70;1.70;;;;;;;23.31;32.86;100028.28;10181639;28;20079;-67
2023/06/12 21:46:48;;;;;;;5.38;1.88;;;;;;;23.17;33.27;100019.75;10183124;29;20043;-67
2023/06/12 21:51:51;;;;;;;3.13;1.95;;;;;;;23.07;33.42;100019.69;10188470;28;20054;-67
2023/06/12 21:56:52;;;;;;;3.05;2.13;;;;;;;22.98;33.85;100026.75;10186401;28;20049;-67
2023/06/12 22:01:54;;;;;;;3.50;2.20;;;;;;;22.90;34.38;100030.00;10186491;28;20051;-65
2023/06/12 22:06:58;;;;;;;2.75;2.00;;;;;;;22.85;34.38;100032.69;10191841;28;20078;-67
2023/06/12 22:12:00;;;;;;;7.15;2.88;;;;;;;22.72;34.45;100020.31;10190301;28;20062;-66
2023/06/12 22:17:01;;;;;;;3.70;2.13;;;;;;;22.61;34.66;100024.06;10173719;28;20059;-66
2023/06/12 22:22:03;;;;;;;4.78;2.35;;;;;;;22.45;35.22;100029.41;10173816;29;20052;-67
2023/06/12 22:27:07;;;;;;;3.05;2.10;;;;;;;22.32;35.33;100025.22;10182710;29;20043;-65
2023/06/12 22:32:09;;;;;;;8.50;2.33;;;;;;;22.22;35.65;100022.38;10181763;28;20468;-67
2023/06/12 22:37:11;;;;;;;4.88;2.05;;;;;;;22.15;35.74;100027.25;10178123;28;20570;-66
2023/06/12 22:42:12;;;;;;;4.43;2.20;;;;;;;22.10;35.83;100029.97;10182245;28;20047;-65
2023/06/12 22:47:15;;;;;;;4.50;2.58;;;;;;;22.02;35.65;100031.25;10181874;29;20092;-68
2023/06/12 22:52:16;;;;;;;4.03;2.30;;;;;;;21.96;35.68;100033.13;10179140;29;20044;-68
2023/06/12 22:57:18;;;;;;;7.47;2.38;;;;;;;21.88;36.37;100035.47;10181689;29;20099;-67
2023/06/12 23:02:21;;;;;;;5.63;2.33;;;;;;;21.77;36.26;100040.03;10164045;29;20071;-67
2023/06/12 23:07:23;;;;;;;3.42;2.45;;;;;;;21.68;36.17;100036.94;10168831;29;20055;-60
2023/06/12 23:12:25;;;;;;;7.03;2.15;;;;;;;21.60;36.70;100034.66;10179788;29;20048;-60
2023/06/12 23:17:26;;;;;;;3.78;2.47;;;;;;;21.52;37.15;100037.84;10180270;28;20047;-61
2023/06/12 23:22:29;;;;;;;4.45;2.25;;;;;;;21.47;37.07;100041.34;10218494;28;20043;-61